Time;durP1;ratioP1;P1;durP2;ratioP2;P2;SDS_P1;SDS_P2;PMS_P1;PMS_P2;Temp;Humidity;BMP_temperature;BMP_pressure;BME280_temperature;BME280_humidity;BME280_pressure;Samples;Min_cycle;Max_cycle;Signal;HPM_P1;HPM_P2
2023/09/02 00:00:00;;;;;;;0.57;0.30;;;;;;;20.74;50.80;101532.47;16121607;19;131063;-56
2023/09/02 00:05:22;;;;;;;0.73;0.43;;;;;;;20.73;51.07;101530.81;16124239;19;129851;-55
2023/09/02 00:10:45;;;;;;;1.20;0.73;;;;;;;20.74;50.77;101537.22;16118966;19;129569;-55
2023/09/02 00:16:08;;;;;;;1.13;0.50;;;;;;;20.74;50.85;101520.53;16123201;19;130617;-54
2023/09/02 00:21:33;;;;;;;0.70;0.40;;;;;;;20.73;50.75;101528.03;16117203;19;131330;-55
2023/09/02 00:26:55;;;;;;;0.77;0.30;;;;;;;20.73;50.72;101516.06;16118150;19;130209;-55
2023/09/02 00:32:17;;;;;;;0.50;0.40;;;;;;;20.73;50.88;101521.63;16117922;19;131964;-57
2023/09/02 00:37:39;;;;;;;1.30;0.50;;;;;;;20.73;50.94;101521.63;16116278;19;130669;-56
2023/09/02 00:43:02;;;;;;;1.50;0.70;;;;;;;20.73;51.02;101543.84;16111264;19;129706;-57
2023/09/02 00:48:24;;;;;;;1.88;0.40;;;;;;;20.72;50.73;101539.38;16114722;19;130650;-58
2023/09/02 00:53:46;;;;;;;1.33;0.38;;;;;;;20.71;50.59;101544.13;16113581;19;130248;-58
2023/09/02 00:59:08;;;;;;;0.60;0.40;;;;;;;20.72;50.58;101539.38;16112118;19;129530;-56
2023/09/02 01:04:32;;;;;;;2.63;0.50;;;;;;;20.72;50.64;101547.72;16111783;19;130114;-58
2023/09/02 01:09:55;;;;;;;1.13;0.52;;;;;;;20.72;50.73;101544.94;16112243;19;129568;-56
2023/09/02 01:15:17;;;;;;;0.60;0.35;;;;;;;20.71;50.76;101543.25;16115288;19;131367;-51
2023/09/02 01:21:07;;;;;;;0.98;0.50;;;;;;;20.73;50.39;101543.84;16110787;19;132472;-54
2023/09/02 01:27:02;;;;;;;1.05;0.30;;;;;;;20.71;50.62;101549.69;16116729;19;130731;-53
2023/09/02 01:32:28;;;;;;;1.40;0.35;;;;;;;20.70;50.69;101552.69;16115462;19;131058;-51
2023/09/02 01:37:55;;;;;;;0.40;0.30;;;;;;;20.70;50.64;101552.69;16120389;19;129465;-48
2023/09/02 01:43:20;;;;;;;0.80;0.50;;;;;;;20.71;50.90;101559.94;16110147;19;129641;-51
2023/09/02 01:48:43;;;;;;;2.25;0.47;;;;;;;20.70;50.42;101561.03;16113133;19;130062;-53
2023/09/02 01:54:05;;;;;;;0.30;0.30;;;;;;;20.70;50.53;101569.38;16115263;19;131847;-51
2023/09/02 01:59:27;;;;;;;0.70;0.40;;;;;;;20.70;50.75;101574.94;16113911;19;129753;-51
2023/09/02 02:04:55;;;;;;;0.52;0.30;;;;;;;20.69;50.61;101567.69;16110947;19;131046;-54
2023/09/02 02:10:21;;;;;;;0.68;0.43;;;;;;;20.70;50.41;101574.94;16115128;19;130838;-51
2023/09/02 02:15:43;;;;;;;0.47;0.40;;;;;;;20.68;50.85;101568.75;16109741;19;129425;-50
2023/09/02 02:21:05;;;;;;;0.50;0.40;;;;;;;20.69;50.52;101584.34;16113211;19;130237;-55
2023/09/02 02:26:27;;;;;;;1.33;0.32;;;;;;;20.68;50.77;101588.22;16107731;19;129795;-55
2023/09/02 02:31:50;;;;;;;0.95;0.40;;;;;;;20.68;50.65;101582.66;16108417;19;130674;-57
2023/09/02 02:37:12;;;;;;;1.25;0.55;;;;;;;20.67;50.63;101592.13;16103143;19;129719;-52
2023/09/02 02:42:33;;;;;;;0.30;0.30;;;;;;;20.67;50.60;101586.56;16107028;19;129561;-54
2023/09/02 02:47:57;;;;;;;1.08;0.50;;;;;;;20.67;50.41;101594.91;16106467;19;130530;-51
2023/09/02 02:53:19;;;;;;;0.73;0.38;;;;;;;20.67;50.47;101597.69;16108497;19;129538;-54
2023/09/02 02:58:41;;;;;;;0.85;0.30;;;;;;;20.66;50.76;101596.81;16106581;19;130746;-55
2023/09/02 03:04:03;;;;;;;0.22;0.22;;;;;;;20.65;50.78;101600.69;16106352;19;130549;-53
2023/09/02 03:09:25;;;;;;;0.70;0.30;;;;;;;20.66;50.70;101596.00;16104310;19;129388;-57
2023/09/02 03:14:47;;;;;;;0.55;0.30;;;;;;;20.66;50.62;101613.50;16105233;19;130049;-54
2023/09/02 03:20:10;;;;;;;0.50;0.30;;;;;;;20.66;50.83;101612.66;16106384;19;129374;-56
2023/09/02 03:25:32;;;;;;;0.32;0.32;;;;;;;20.66;50.55;101615.44;16116025;19;131755;-55
2023/09/02 03:31:03;;;;;;;0.43;0.20;;;;;;;20.66;50.56;101609.88;16120033;19;129614;-53
2023/09/02 03:36:25;;;;;;;0.38;0.38;;;;;;;20.65;50.79;101605.41;16118653;19;130264;-56
2023/09/02 03:41:47;;;;;;;0.35;0.30;;;;;;;20.64;50.73;101603.72;16117982;19;130732;-55
2023/09/02 03:47:09;;;;;;;0.32;0.22;;;;;;;20.64;50.58;101598.16;16119412;19;129771;-54
2023/09/02 03:52:32;;;;;;;0.55;0.40;;;;;;;20.63;50.77;101597.28;16117597;19;129573;-59
2023/09/02 03:57:54;;;;;;;0.40;0.32;;;;;;;20.63;50.43;101608.41;16117570;19;130878;-55
2023/09/02 04:03:19;;;;;;;0.30;0.30;;;;;;;20.62;50.40;101608.69;16112162;19;131710;-55
2023/09/02 04:08:42;;;;;;;0.30;0.30;;;;;;;20.62;50.68;101600.34;16117781;19;131823;-55
2023/09/02 04:14:04;;;;;;;1.00;0.30;;;;;;;20.62;50.28;101606.72;16115981;19;130827;-56
2023/09/02 04:19:26;;;;;;;1.40;0.32;;;;;;;20.61;50.47;101599.50;16112558;19;130307;-55
2023/09/02 04:24:48;;;;;;;0.20;0.20;;;;;;;20.61;50.68;101593.94;16113057;19;129895;-55
2023/09/02 04:30:10;;;;;;;0.50;0.30;;;;;;;20.60;50.33;101601.41;16113838;19;129667;-56
2023/09/02 04:35:39;;;;;;;0.45;0.40;;;;;;;20.62;50.57;101603.13;16117007;19;130323;-55
2023/09/02 04:41:06;;;;;;;0.35;0.30;;;;;;;20.59;50.54;101596.94;16113849;19;130476;-51
2023/09/02 04:46:28;;;;;;;1.40;0.30;;;;;;;20.58;50.80;101595.25;16114766;19;130212;-51
2023/09/02 04:51:50;;;;;;;0.32;0.32;;;;;;;20.60;50.45;101611.72;16112319;19;130897;-52
2023/09/02 04:57:13;;;;;;;0.30;0.30;;;;;;;20.59;50.54;101623.91;16108239;19;131192;-54
2023/09/02 05:02:35;;;;;;;0.82;0.30;;;;;;;20.59;50.58;101619.19;16108794;19;130452;-51
2023/09/02 05:07:57;;;;;;;0.30;0.20;;;;;;;20.58;50.24;101623.06;16109857;19;132801;-56
2023/09/02 05:13:19;;;;;;;0.47;0.40;;;;;;;20.58;50.71;101625.00;16112299;19;130355;-52
2023/09/02 05:18:41;;;;;;;0.30;0.30;;;;;;;20.58;50.49;101634.16;16119160;19;132958;-57
2023/09/02 05:24:04;;;;;;;0.82;0.40;;;;;;;20.58;50.70;101627.78;16114368;19;130131;-56
2023/09/02 05:29:25;;;;;;;0.30;0.20;;;;;;;20.58;50.68;101630.56;16114533;19;131267;-57
2023/09/02 05:34:47;;;;;;;1.40;0.40;;;;;;;20.56;50.21;101647.47;16108028;19;130895;-55
2023/09/02 05:40:10;;;;;;;0.50;0.35;;;;;;;20.55;50.58;101651.34;16108644;19;131373;-52
2023/09/02 05:45:32;;;;;;;0.38;0.20;;;;;;;20.56;50.40;101663.31;16109273;19;130616;-55
2023/09/02 05:50:57;;;;;;;1.88;0.45;;;;;;;20.56;50.31;101678.03;16107369;19;131803;-56
2023/09/02 05:56:19;;;;;;;0.40;0.30;;;;;;;20.55;50.43;101679.16;16111183;19;129563;-55
2023/09/02 06:01:43;;;;;;;0.93;0.22;;;;;;;20.56;50.68;101691.94;16109350;19;132883;-54
2023/09/02 06:07:05;;;;;;;0.40;0.32;;;;;;;20.55;50.41;101695.84;16109233;19;129730;-54
2023/09/02 06:12:26;;;;;;;0.40;0.40;;;;;;;20.55;50.67;101694.97;16106510;19;131032;-55
2023/09/02 06:17:48;;;;;;;0.30;0.30;;;;;;;20.55;50.69;101709.75;16107875;19;130788;-53
2023/09/02 06:23:10;;;;;;;0.68;0.40;;;;;;;20.55;50.25;101715.28;16105740;19;131360;-54
2023/09/02 06:28:33;;;;;;;0.22;0.20;;;;;;;20.55;50.64;101729.19;16105066;19;129747;-58
2023/09/02 06:33:55;;;;;;;0.45;0.20;;;;;;;20.55;50.20;101757.00;16107630;19;129508;-57
2023/09/02 06:39:17;;;;;;;1.05;0.32;;;;;;;20.54;50.64;101766.41;16107311;19;133328;-56
2023/09/02 06:44:40;;;;;;;0.40;0.32;;;;;;;20.55;50.67;101770.88;16104035;19;131299;-55
2023/09/02 06:50:02;;;;;;;0.30;0.30;;;;;;;20.54;50.29;101777.53;16104683;19;131398;-57
2023/09/02 06:55:24;;;;;;;0.20;0.20;;;;;;;20.53;50.51;101778.63;16115221;19;130277;-54
2023/09/02 07:00:48;;;;;;;1.42;0.35;;;;;;;20.55;50.42;101778.38;16122816;19;130408;-56
2023/09/02 07:06:13;;;;;;;0.70;0.20;;;;;;;20.54;50.50;101776.66;16123606;19;130897;-55
2023/09/02 07:11:35;;;;;;;;;;;;;;;20.51;50.53;101777.13;16122178;19;129656;-53
2023/09/02 07:16:57;;;;;;;0.85;0.35;;;;;;;20.53;50.23;101789.75;16121822;19;131047;-55
2023/09/02 07:22:20;;;;;;;0.40;0.20;;;;;;;20.53;50.25;101797.22;16121636;19;131531;-55
2023/09/02 07:27:42;;;;;;;0.43;0.28;;;;;;;20.52;50.46;101807.50;16119666;19;129977;-55
2023/09/02 07:33:04;;;;;;;0.45;0.22;;;;;;;20.52;50.27;101807.50;16116050;19;129637;-64
2023/09/02 07:38:27;;;;;;;4.18;0.40;;;;;;;20.52;50.59;101801.94;16117827;19;130206;-56
2023/09/02 07:43:49;;;;;;;1.30;0.40;;;;;;;20.53;50.68;101814.75;16115411;19;129802;-69
2023/09/02 07:49:11;;;;;;;0.95;0.50;;;;;;;20.55;50.57;101831.19;16117521;19;130955;-53
2023/09/02 07:54:33;;;;;;;0.80;0.30;;;;;;;20.56;50.22;101847.63;16116136;19;129434;-64
2023/09/02 07:59:55;;;;;;;5.78;0.95;;;;;;;20.57;50.26;101838.19;16121093;19;130531;-59
2023/09/02 08:05:17;;;;;;;0.52;0.35;;;;;;;20.62;50.23;101844.97;16115893;19;130154;-58
2023/09/02 08:10:39;;;;;;;0.20;0.20;;;;;;;20.63;50.25;101844.72;16116841;19;130583;-58
2023/09/02 08:16:05;;;;;;;2.65;0.80;;;;;;;20.67;50.07;101848.75;16116705;19;129523;-58
2023/09/02 08:21:27;;;;;;;1.63;0.50;;;;;;;20.70;50.24;101841.84;16117277;19;130963;-58
2023/09/02 08:26:49;;;;;;;3.75;0.50;;;;;;;20.73;50.57;101846.94;16110852;19;130436;-55
2023/09/02 08:32:11;;;;;;;1.08;0.40;;;;;;;20.76;50.26;101865.97;16116297;19;131077;-58
2023/09/02 08:37:34;;;;;;;3.70;0.63;;;;;;;20.78;50.07;101857.38;16117459;19;130691;-56
2023/09/02 08:42:59;;;;;;;2.85;0.55;;;;;;;20.81;50.04;101860.53;16117918;19;130506;-55
2023/09/02 08:48:24;;;;;;;1.65;0.40;;;;;;;20.84;50.36;101854.50;16117653;19;133486;-55
2023/09/02 08:53:48;;;;;;;3.47;0.45;;;;;;;20.86;49.94;101869.00;16110162;19;131621;-55
2023/09/02 08:59:11;;;;;;;4.82;0.60;;;;;;;20.87;50.44;101876.28;16114965;19;130228;-57
2023/09/02 09:04:36;;;;;;;1.25;0.50;;;;;;;20.93;50.10;101879.16;16106002;19;129568;-56
2023/09/02 09:10:01;;;;;;;2.05;0.43;;;;;;;21.00;50.10;101877.97;16110040;19;130758;-55
2023/09/02 09:15:24;;;;;;;5.35;0.57;;;;;;;21.08;50.15;101879.56;16111473;19;130708;-52
2023/09/02 09:20:46;;;;;;;1.75;0.47;;;;;;;21.12;49.83;101874.34;16115689;19;129439;-55
2023/09/02 09:26:10;;;;;;;3.13;0.50;;;;;;;21.14;49.81;101880.53;16114163;19;130593;-55
2023/09/02 09:31:32;;;;;;;0.35;0.30;;;;;;;21.18;49.79;101876.19;16105884;19;129940;-57
2023/09/02 09:36:57;;;;;;;1.25;0.40;;;;;;;21.20;49.81;101877.63;16115983;19;129774;-56
2023/09/02 09:42:33;;;;;;;2.80;0.73;;;;;;;21.25;49.92;101887.22;16116231;19;131071;-58
2023/09/02 09:48:08;;;;;;;0.88;0.50;;;;;;;21.25;49.47;101892.78;16111619;19;129735;-57
2023/09/02 09:53:45;;;;;;;3.22;0.38;;;;;;;21.31;49.83;101908.50;16112365;19;129174;-55
2023/09/02 09:59:08;;;;;;;0.95;0.40;;;;;;;21.33;49.70;101906.31;16110953;19;129580;-58
2023/09/02 10:04:31;;;;;;;0.45;0.32;;;;;;;21.34;49.82;101908.03;16112362;19;131603;-56
2023/09/02 10:09:55;;;;;;;2.35;0.50;;;;;;;21.36;49.43;101925.34;16110873;19;130728;-56
2023/09/02 10:15:24;;;;;;;1.23;0.50;;;;;;;21.34;49.68;101925.59;16111973;19;129196;-54
2023/09/02 10:20:47;;;;;;;2.90;0.60;;;;;;;21.32;49.95;101926.91;16113239;19;129944;-58
2023/09/02 10:26:17;;;;;;;1.70;0.60;;;;;;;21.33;49.67;101921.09;16108426;19;129501;-57
2023/09/02 10:31:40;;;;;;;1.00;0.50;;;;;;;21.36;49.50;101919.78;16102042;19;131799;-56
2023/09/02 10:37:05;;;;;;;2.72;0.60;;;;;;;21.39;49.98;101924.00;16112605;19;131067;-55
2023/09/02 10:42:28;;;;;;;0.85;0.50;;;;;;;21.40;49.69;101928.47;16111229;19;131290;-57
2023/09/02 10:47:51;;;;;;;0.70;0.40;;;;;;;21.38;49.50;101937.09;16110890;19;129559;-57
2023/09/02 10:53:13;;;;;;;1.90;0.50;;;;;;;21.37;49.79;101929.81;16113426;19;129751;-57
2023/09/02 10:58:47;;;;;;;1.38;0.60;;;;;;;21.40;50.05;101934.91;16109013;19;129910;-57
2023/09/02 11:04:09;;;;;;;2.55;0.40;;;;;;;21.39;49.79;101936.00;16108740;19;130468;-56
2023/09/02 11:09:49;;;;;;;2.95;0.60;;;;;;;21.43;49.70;101939.97;16108183;19;130405;-54
2023/09/02 11:15:15;;;;;;;1.90;0.80;;;;;;;21.45;49.78;101943.38;16106474;19;130330;-58
2023/09/02 11:20:49;;;;;;;2.50;0.57;;;;;;;21.48;49.85;101954.03;16106000;19;130580;-58
2023/09/02 11:26:16;;;;;;;1.17;0.40;;;;;;;21.46;50.02;101961.78;16103572;19;131018;-56
2023/09/02 11:31:56;;;;;;;1.05;0.63;;;;;;;21.47;50.01;101969.03;16104794;19;131174;-58
2023/09/02 11:37:30;;;;;;;0.65;0.50;;;;;;;21.45;50.28;101974.00;16104646;19;130044;-62
2023/09/02 11:42:59;;;;;;;0.60;0.40;;;;;;;21.44;49.90;101977.88;16119517;19;131451;-59
2023/09/02 11:48:27;;;;;;;0.60;0.45;;;;;;;21.44;50.08;101980.66;16123599;19;133131;-58
2023/09/02 11:53:55;;;;;;;1.05;0.60;;;;;;;21.46;50.16;101984.03;16121235;19;130799;-57
2023/09/02 11:59:22;;;;;;;2.72;0.75;;;;;;;21.47;50.29;101969.03;16122644;19;131261;-58
2023/09/02 12:04:49;;;;;;;2.15;0.77;;;;;;;21.47;50.03;101969.03;16124370;19;130212;-58
2023/09/02 12:10:16;;;;;;;0.82;0.52;;;;;;;21.47;50.49;101980.19;16121887;19;129786;-59
2023/09/02 12:15:38;;;;;;;3.50;0.68;;;;;;;21.46;50.58;101984.03;16122202;19;130122;-58
2023/09/02 12:21:00;;;;;;;1.23;0.80;;;;;;;21.46;50.57;101989.63;16123858;19;129483;-56
2023/09/02 12:26:22;;;;;;;0.80;0.40;;;;;;;21.47;50.30;101985.75;16118897;19;129560;-59
2023/09/02 12:32:00;;;;;;;1.17;0.52;;;;;;;21.47;50.42;101991.31;16126228;19;130842;-58
2023/09/02 12:37:22;;;;;;;1.48;0.68;;;;;;;21.47;50.49;101982.97;16118391;19;130341;-59
2023/09/02 12:42:54;;;;;;;0.73;0.50;;;;;;;21.49;50.70;101985.53;16120628;19;131357;-58
2023/09/02 12:48:16;;;;;;;2.03;0.65;;;;;;;21.50;50.36;101982.50;16119076;19;131280;-58
2023/09/02 12:53:37;;;;;;;1.15;0.60;;;;;;;21.49;50.37;101986.38;16119451;19;129664;-57
2023/09/02 12:58:59;;;;;;;1.38;0.70;;;;;;;21.50;50.67;102009.50;16120551;19;131414;-55
2023/09/02 13:04:21;;;;;;;2.55;0.60;;;;;;;21.49;50.67;102011.44;16118782;19;134732;-54
2023/09/02 13:09:45;;;;;;;2.00;0.82;;;;;;;21.49;50.62;102007.78;16115815;19;130924;-57
2023/09/02 13:15:08;;;;;;;1.98;0.65;;;;;;;21.48;50.77;102009.72;16116074;19;130306;-58
2023/09/02 13:20:35;;;;;;;2.28;0.75;;;;;;;21.49;50.42;102022.59;16111708;19;129529;-55
2023/09/02 13:25:59;;;;;;;3.63;0.80;;;;;;;21.50;50.61;102015.94;16113316;19;130461;-57
2023/09/02 13:31:22;;;;;;;2.95;1.05;;;;;;;21.50;51.06;102028.97;16112099;19;133858;-58
2023/09/02 13:36:44;;;;;;;4.57;1.20;;;;;;;21.49;51.18;102033.72;16115549;19;129626;-60
2023/09/02 13:42:14;;;;;;;3.45;1.95;;;;;;;21.50;51.44;102032.63;16111762;19;134247;-59
2023/09/02 13:47:39;;;;;;;3.33;2.15;;;;;;;21.50;51.28;102038.19;16115304;19;130468;-60
2023/09/02 13:53:01;;;;;;;3.47;2.83;;;;;;;21.51;51.81;102042.69;16117299;19;130939;-58
2023/09/02 13:58:23;;;;;;;3.85;2.70;;;;;;;21.52;51.72;102033.25;16113938;19;129475;-59
2023/09/02 14:03:47;;;;;;;4.38;3.30;;;;;;;21.50;51.87;102029.84;16110828;19;131161;-58
2023/09/02 14:09:18;;;;;;;4.18;2.83;;;;;;;21.51;52.02;102031.53;16114201;19;129855;-62
2023/09/02 14:14:40;;;;;;;3.40;2.47;;;;;;;21.50;52.06;102038.19;16112430;19;130186;-59
2023/09/02 14:20:03;;;;;;;3.10;2.80;;;;;;;21.52;52.15;102038.81;16114253;19;130012;-59
2023/09/02 14:25:26;;;;;;;5.70;3.80;;;;;;;21.52;52.42;102029.59;16113690;19;129605;-59
2023/09/02 14:30:48;;;;;;;4.32;3.20;;;;;;;21.55;52.32;102033.81;16117712;19;129393;-56
2023/09/02 14:36:10;;;;;;;4.28;3.55;;;;;;;21.62;52.68;102034.59;16116567;19;129290;-55
2023/09/02 14:41:32;;;;;;;6.03;3.80;;;;;;;21.65;52.59;102031.31;16113537;19;130220;-58
2023/09/02 14:46:54;;;;;;;5.32;3.65;;;;;;;21.70;53.23;102030.59;16111100;19;129338;-53
2023/09/02 14:52:16;;;;;;;3.45;3.15;;;;;;;21.73;53.00;102033.75;16111235;19;131324;-59
2023/09/02 14:57:38;;;;;;;5.43;3.33;;;;;;;21.75;53.13;102039.94;16089385;19;130890;-58
2023/09/02 15:03:01;;;;;;;4.55;3.80;;;;;;;21.78;53.30;102036.69;16110624;19;131557;-59
2023/09/02 15:08:23;;;;;;;13.23;4.03;;;;;;;21.80;53.26;102033.63;16108281;19;129880;-57
2023/09/02 15:13:45;;;;;;;6.60;4.47;;;;;;;21.82;53.20;102037.88;16109632;19;130428;-50
2023/09/02 15:19:13;;;;;;;6.97;4.88;;;;;;;21.82;52.86;102035.09;16124553;19;129873;-55
2023/09/02 15:24:35;;;;;;;5.78;4.63;;;;;;;21.83;53.10;102044.31;16129164;19;129443;-56
2023/09/02 15:29:57;;;;;;;5.30;4.80;;;;;;;21.82;53.23;102049.00;16125753;19;129510;-56
2023/09/02 15:35:20;;;;;;;6.05;5.45;;;;;;;21.83;53.41;102058.22;16122413;19;130221;-61
2023/09/02 15:40:42;;;;;;;5.82;5.22;;;;;;;21.83;53.15;102045.13;16120469;19;131907;-60
2023/09/02 15:46:07;;;;;;;6.43;5.57;;;;;;;21.83;53.37;102038.72;16118285;19;129828;-64
2023/09/02 15:51:29;;;;;;;5.97;5.30;;;;;;;21.82;53.43;102037.88;16117178;19;130450;-58
2023/09/02 15:56:51;;;;;;;7.85;5.70;;;;;;;21.80;53.46;102055.91;16108383;19;130357;-61
2023/09/02 16:02:13;;;;;;;9.20;6.20;;;;;;;21.78;53.37;102058.09;16109549;19;131003;-59
2023/09/02 16:07:35;;;;;;;6.43;5.60;;;;;;;21.76;53.54;102060.25;16104907;19;131814;-60
2023/09/02 16:12:57;;;;;;;6.05;5.30;;;;;;;21.75;53.28;102064.13;16109552;19;130087;-58
2023/09/02 16:18:19;;;;;;;7.05;4.72;;;;;;;21.73;53.22;102066.31;16114009;19;130882;-62
2023/09/02 16:23:41;;;;;;;5.93;4.90;;;;;;;21.71;53.04;102069.34;16121101;19;130273;-60
2023/09/02 16:29:03;;;;;;;6.88;6.20;;;;;;;21.71;53.67;102085.22;16114776;19;130926;-57
2023/09/02 16:34:25;;;;;;;9.55;6.28;;;;;;;21.70;53.52;102077.94;16114389;19;130580;-58
2023/09/02 16:39:47;;;;;;;7.45;6.55;;;;;;;21.69;53.62;102088.22;16112880;19;130231;-57
2023/09/02 16:45:11;;;;;;;8.70;6.88;;;;;;;21.67;53.76;102095.97;16118391;19;129546;-57
2023/09/02 16:50:35;;;;;;;10.52;7.28;;;;;;;21.65;53.84;102098.16;16117780;19;129342;-59
2023/09/02 16:56:04;;;;;;;10.45;8.55;;;;;;;21.65;53.89;102092.59;16117723;19;131440;-58
2023/09/02 17:01:26;;;;;;;20.80;7.03;;;;;;;21.63;53.73;102100.34;16115289;19;133693;-57
2023/09/02 17:06:50;;;;;;;10.20;6.88;;;;;;;21.61;53.75;102108.91;16115199;19;131014;-59
2023/09/02 17:12:12;;;;;;;14.48;8.30;;;;;;;21.62;53.89;102099.47;16118208;19;130963;-59
2023/09/02 17:17:37;;;;;;;17.77;7.90;;;;;;;21.64;53.78;102115.97;16105256;19;131106;-57
2023/09/02 17:23:01;;;;;;;;;;;;;;;21.61;53.72;102125.63;16109437;19;131684;-57
2023/09/02 17:28:25;;;;;;;17.05;8.30;;;;;;;21.63;54.15;102126.22;16109672;19;129767;-56
2023/09/02 17:33:48;;;;;;;13.57;8.20;;;;;;;21.64;53.79;102127.09;16107692;19;132217;-58
2023/09/02 17:39:10;;;;;;;18.83;7.82;;;;;;;21.65;54.11;102132.41;16110144;19;129853;-59
2023/09/02 17:44:32;;;;;;;17.38;8.82;;;;;;;21.64;53.98;102146.59;16113812;19;130139;-58
2023/09/02 17:49:54;;;;;;;14.77;8.15;;;;;;;21.63;53.76;102140.16;16117165;19;130119;-55
2023/09/02 17:55:17;;;;;;;17.02;8.20;;;;;;;21.62;54.10;102134.84;16110336;19;129631;-57
2023/09/02 18:00:39;;;;;;;16.90;8.15;;;;;;;21.61;54.03;102159.03;16113262;19;130446;-58
2023/09/02 18:06:01;;;;;;;15.90;8.68;;;;;;;21.63;54.15;102164.38;16110914;19;131271;-58
2023/09/02 18:11:23;;;;;;;14.13;7.80;;;;;;;21.65;54.39;102176.16;16107020;19;130280;-55
2023/09/02 18:16:45;;;;;;;13.60;7.75;;;;;;;21.67;53.91;102190.66;16106658;19;130055;-52
2023/09/02 18:22:08;;;;;;;17.23;7.85;;;;;;;21.68;54.03;102189.56;16106255;19;130811;-58
2023/09/02 18:27:31;;;;;;;14.70;8.70;;;;;;;21.67;53.91;102207.38;16103142;19;130944;-59
2023/09/02 18:32:53;;;;;;;15.93;7.80;;;;;;;21.66;53.92;102211.25;16115328;19;131717;-59
2023/09/02 18:38:15;;;;;;;14.65;7.68;;;;;;;21.66;53.77;102200.97;16115165;19;130929;-60
2023/09/02 18:43:37;;;;;;;16.58;7.28;;;;;;;21.67;53.70;102215.72;16118225;19;130497;-52
2023/09/02 18:49:00;;;;;;;11.50;7.00;;;;;;;21.68;54.03;102225.78;16111892;19;129669;-49
2023/09/02 18:54:22;;;;;;;10.10;7.40;;;;;;;21.68;53.71;102231.34;16110306;19;130467;-55
2023/09/02 18:59:44;;;;;;;13.00;6.65;;;;;;;21.67;53.59;102230.50;16111930;19;130661;-56
2023/09/02 19:05:06;;;;;;;12.50;6.55;;;;;;;21.68;53.96;102236.91;16115164;19;129523;-57
2023/09/02 19:10:29;;;;;;;14.52;7.10;;;;;;;21.68;54.04;102248.06;16114423;19;131651;-52
2023/09/02 19:15:51;;;;;;;10.40;6.50;;;;;;;21.68;53.83;102242.50;16111640;19;129965;-54
2023/09/02 19:21:13;;;;;;;11.50;6.68;;;;;;;21.69;53.65;102249.75;16106792;19;129554;-55
2023/09/02 19:26:35;;;;;;;9.32;6.15;;;;;;;21.70;53.45;102258.97;16110391;19;129935;-56
2023/09/02 19:31:57;;;;;;;13.10;6.07;;;;;;;21.70;53.79;102259.81;16113300;19;131631;-56
2023/09/02 19:37:19;;;;;;;7.70;5.63;;;;;;;21.71;53.80;102269.03;16114321;19;129801;-54
2023/09/02 19:42:45;;;;;;;7.93;6.13;;;;;;;21.73;53.83;102278.84;16110801;19;130116;-55
2023/09/02 19:48:07;;;;;;;8.93;6.10;;;;;;;21.74;53.76;102282.47;16110975;19;129991;-56
2023/09/02 19:53:30;;;;;;;8.40;5.78;;;;;;;21.74;53.76;102296.41;16112620;19;130225;-50
2023/09/02 19:58:52;;;;;;;7.90;5.30;;;;;;;21.74;53.75;102288.03;16108167;19;130552;-60
2023/09/02 20:04:24;;;;;;;5.88;4.82;;;;;;;21.75;53.71;102304.53;16123610;19;129975;-59
2023/09/02 20:09:46;;;;;;;7.70;5.28;;;;;;;21.75;53.71;102310.13;16126445;19;129285;-52
2023/09/02 20:15:08;;;;;;;8.70;5.00;;;;;;;21.77;53.47;102302.38;16121768;19;130046;-58
2023/09/02 20:20:31;;;;;;;10.13;5.50;;;;;;;21.76;53.63;102309.03;16117890;19;129791;-57
2023/09/02 20:25:53;;;;;;;8.30;5.45;;;;;;;21.75;53.65;102309.25;16112777;19;132752;-59
2023/09/02 20:31:16;;;;;;;6.90;4.55;;;;;;;21.73;53.34;102300.28;16117592;19;129615;-60
2023/09/02 20:36:38;;;;;;;6.07;5.07;;;;;;;21.72;53.36;102315.31;16119481;19;129380;-58
2023/09/02 20:42:00;;;;;;;7.63;5.18;;;;;;;21.71;53.68;102319.19;16119390;19;130069;-57
2023/09/02 20:47:22;;;;;;;7.05;5.07;;;;;;;21.69;53.89;102330.53;16115983;19;129998;-54
2023/09/02 20:52:44;;;;;;;8.82;4.85;;;;;;;21.68;53.42;102337.19;16121423;19;130436;-54
2023/09/02 20:58:06;;;;;;;8.05;5.05;;;;;;;21.68;53.55;102339.97;16125071;19;133264;-57
2023/09/02 21:03:28;;;;;;;7.63;5.35;;;;;;;21.65;53.28;102343.25;16118242;19;129860;-57
2023/09/02 21:08:53;;;;;;;6.47;4.72;;;;;;;21.67;53.38;102357.75;16120601;19;129612;-57
2023/09/02 21:14:15;;;;;;;9.93;5.00;;;;;;;21.66;53.46;102367.22;16120495;19;130199;-54
2023/09/02 21:19:37;;;;;;;8.02;4.90;;;;;;;21.66;53.34;102367.22;16125302;19;129358;-59
2023/09/02 21:24:59;;;;;;;6.63;5.25;;;;;;;21.64;53.37;102358.25;16154235;19;130538;-57
2023/09/02 21:30:21;;;;;;;6.70;5.28;;;;;;;21.65;53.35;102366.34;16124132;19;129730;-52
2023/09/02 21:35:43;;;;;;;7.07;5.00;;;;;;;21.63;53.13;102373.25;16115552;19;130470;-48
2023/09/02 21:41:08;;;;;;;8.02;5.13;;;;;;;21.60;53.34;102371.75;16117067;19;131958;-49
2023/09/02 21:46:31;;;;;;;6.22;5.20;;;;;;;21.60;53.31;102368.13;16115027;19;129211;-50
2023/09/02 21:51:53;;;;;;;5.15;4.55;;;;;;;21.58;53.15;102376.75;16122062;19;129757;-55
2023/09/02 21:57:15;;;;;;;8.43;4.90;;;;;;;21.56;53.08;102380.81;16116667;19;129579;-54
2023/09/02 22:02:37;;;;;;;7.78;5.47;;;;;;;21.55;53.43;102379.09;16118453;19;129645;-51
2023/09/02 22:08:01;;;;;;;8.70;5.78;;;;;;;21.55;52.96;102387.47;16118804;19;131330;-54
2023/09/02 22:13:25;;;;;;;6.17;4.93;;;;;;;21.51;53.22;102382.38;16118338;19;130280;-52
2023/09/02 22:18:46;;;;;;;6.15;4.97;;;;;;;21.50;52.90;102394.59;16116086;19;134935;-49
2023/09/02 22:24:28;;;;;;;6.60;5.05;;;;;;;21.49;53.01;102401.25;16124302;19;131051;-51
2023/09/02 22:29:50;;;;;;;6.28;4.75;;;;;;;21.48;52.97;102402.28;16116934;19;130152;-54
2023/09/02 22:35:12;;;;;;;5.70;5.07;;;;;;;21.47;53.29;102408.94;16112742;19;129976;-51
2023/09/02 22:40:34;;;;;;;5.13;4.30;;;;;;;21.46;53.00;102401.66;16119085;19;130656;-52
2023/09/02 22:45:56;;;;;;;7.60;5.05;;;;;;;21.44;53.06;102398.25;16119179;19;129993;-57
2023/09/02 22:51:18;;;;;;;9.65;5.13;;;;;;;21.44;52.94;102398.25;16121214;19;130392;-55
2023/09/02 22:56:40;;;;;;;12.10;4.88;;;;;;;21.43;52.98;102390.97;16122657;19;130300;-57
2023/09/02 23:02:02;;;;;;;5.18;4.68;;;;;;;21.41;52.58;102398.72;16118256;19;129663;-57
2023/09/02 23:07:24;;;;;;;5.15;4.65;;;;;;;21.41;52.79;102395.09;16116080;19;131409;-55
2023/09/02 23:12:46;;;;;;;7.47;4.97;;;;;;;21.39;52.89;102405.59;16121490;19;131116;-55
2023/09/02 23:18:10;;;;;;;8.15;5.63;;;;;;;21.39;52.74;102412.03;16107273;19;131462;-54
2023/09/02 23:23:32;;;;;;;6.55;5.93;;;;;;;21.39;53.06;102422.28;16106719;19;130247;-56
2023/09/02 23:28:58;;;;;;;7.00;6.30;;;;;;;21.36;52.70;102421.66;16111424;19;129794;-56
2023/09/02 23:34:20;;;;;;;9.25;6.55;;;;;;;21.35;52.81;102430.25;16109751;19;130288;-56
2023/09/02 23:39:42;;;;;;;7.25;5.80;;;;;;;21.34;52.81;102425.78;16125376;19;132637;-55
2023/09/02 23:45:04;;;;;;;7.97;5.63;;;;;;;21.34;52.59;102426.63;16128512;19;129753;-56
2023/09/02 23:50:26;;;;;;;6.75;6.05;;;;;;;21.33;52.60;102421.28;16123033;19;130320;-54
2023/09/02 23:55:48;;;;;;;6.93;5.95;;;;;;;21.33;52.31;102415.72;16124552;19;130634;-51
